ADDS METAR Data INFO
IDs: Format: Raw Decoded Include TAF

Data at: 1926 UTC 16 Aug 2017

KLUD 161915Z AUTO 19009G15KT 10SM SCT028 30/23 A2993 RMK AO2 T03040228
KLUD 161855Z AUTO 19010KT 10SM SCT026 31/23 A2993 RMK AO2 T03050228
KLUD 161835Z AUTO 18010KT 10SM CLR 30/23 A2994 RMK AO2 T02970227
KLUD 161815Z AUTO 18011G18KT 10SM SCT026 30/23 A2994 RMK AO2 T02950225
KLUD 161755Z AUTO 18010KT 10SM SCT026 29/23 A2995 RMK AO2 T02940225 10308 20256
KLUD 161735Z AUTO 18009KT 10SM SCT026 30/23 A2995 RMK AO2 T02970227
KLUD 161715Z AUTO 17011KT 10SM CLR 30/22 A2995 RMK AO2 T03000224
KLUD 161655Z AUTO 18013KT 10SM CLR 30/23 A2995 RMK AO2 T03040225
KLUD 161635Z AUTO 18011G16KT 7SM CLR 29/22 A2995 RMK AO2 T02900221
KLUD 161615Z AUTO 19010G14KT 10SM CLR 29/22 A2995 RMK AO2 T02940222
KLUD 161555Z AUTO 19009KT 10SM SCT028 SCT080 29/22 A2995 RMK AO2 T02940223
KLUD 161535Z AUTO 20011G16KT 10SM CLR 29/23 A2995 RMK AO2 T02910225
KLUD 161515Z AUTO 19011G16KT 10SM CLR 29/22 A2994 RMK AO2 T02860222
KLUD 161455Z AUTO 20011G14KT 10SM CLR 28/22 A2994 RMK AO2 T02800223
KLUD 161435Z AUTO 19009G15KT 10SM CLR 27/22 A2994 RMK AO2 T02720224
KLUD 161415Z AUTO 18013G18KT 10SM CLR 27/22 A2993 RMK AO2 T02680224
KLUD 161355Z AUTO 18011G15KT 10SM CLR 27/23 A2993 RMK AO2 T02660225
KLUD 161335Z AUTO 18011G16KT 10SM CLR 26/22 A2992 RMK AO2 T02600223
KLUD 161315Z AUTO 17011G15KT 10SM CLR 26/22 A2991 RMK AO2 T02580222
KLUD 161255Z AUTO 17014G17KT 10SM CLR 26/22 A2990 RMK AO2 T02570221
KLUD 161235Z AUTO 17012G18KT 10SM CLR 26/22 A2990 RMK AO2 T02570220
KLUD 161215Z AUTO 17011KT 10SM CLR 26/22 A2990 RMK AO2 T02570221
KLUD 161155Z AUTO 16010KT 10SM CLR 26/22 A2989 RMK AO2 T02580220 10289 20258
KLUD 161135Z AUTO 17009KT 10SM CLR 26/22 A2989 RMK AO2 T02610219
KLUD 161115Z AUTO 17009KT 10SM CLR 26/22 A2988 RMK AO2 T02610217
KLUD 161055Z AUTO 17008KT 10SM CLR 27/22 A2988 RMK AO2 T02650216
KLUD 161035Z AUTO 18007KT 10SM CLR 27/22 A2987 RMK AO2 T02670217
KLUD 161015Z AUTO 18009KT 10SM CLR 27/22 A2987 RMK AO2 T02700216
KLUD 160955Z AUTO 18008KT 10SM SCT070 SCT085 27/22 A2987 RMK AO2 T02700216
KLUD 160935Z AUTO 18008KT 10SM CLR 27/22 A2988 RMK AO2 T02710217
KLUD 160915Z AUTO 19009KT 10SM CLR 27/22 A2988 RMK AO2 T02730217
KLUD 160855Z AUTO 19009G14KT 7SM SCT110 28/22 A2987 RMK AO2 T02750216
KLUD 160835Z AUTO 17010KT 10SM CLR 28/22 A2987 RMK AO2 T02770215
KLUD 160815Z AUTO 17012G16KT 10SM CLR 28/22 A2986 RMK AO2 T02800215
KLUD 160755Z AUTO 17010G16KT 10SM CLR 28/21 A2985 RMK AO2 T02800213
KLUD 160735Z AUTO 17009G16KT 7SM CLR 28/21 A2985 RMK AO2 T02810211
KLUD 160715Z AUTO 17013KT 10SM CLR 28/21 A2985 RMK AO2 T02820210
KLUD 160655Z AUTO 17013KT 7SM CLR 29/21 A2985 RMK AO2 T02850206
KLUD 160635Z AUTO 17011KT 10SM CLR 29/21 A2985 RMK AO2 T02850205
KLUD 160615Z AUTO 16010G14KT 10SM CLR 29/21 A2986 RMK AO2 T02870205
KLUD 160555Z AUTO 16009KT 7SM CLR 29/21 A2986 RMK AO2 T02890205 10307 20270 403240248
KLUD 160535Z AUTO 17008KT 10SM CLR 29/21 A2987 RMK AO2 T02920205
KLUD 160515Z AUTO 16006KT 10SM CLR 29/21 A2987 RMK AO2 T02880207
KLUD 160455Z AUTO 15004KT 10SM CLR 28/22 A2987 RMK AO2 T02810216
KLUD 160435Z AUTO 13004KT 10SM CLR 28/22 A2987 RMK AO2 T02800223
KLUD 160415Z AUTO 12004KT 10SM CLR 28/23 A2987 RMK AO2 T02770228
KLUD 160355Z AUTO 11005KT 10SM SCT080 SCT110 28/23 A2987 RMK AO2 T02770229
KLUD 160335Z AUTO 10004KT 10SM SCT080 SCT100 28/23 A2987 RMK AO2 T02750229
KLUD 160315Z AUTO 11003KT 10SM CLR 27/23 A2987 RMK AO2 T02710230
KLUD 160255Z AUTO 12003KT 10SM CLR 27/23 A2985 RMK AO2 T02730230
KLUD 160235Z AUTO 08004KT 10SM CLR 28/23 A2984 RMK AO2 T02760230
KLUD 160215Z AUTO 07004KT 10SM CLR 29/23 A2983 RMK AO2 T02850230
KLUD 160155Z AUTO 00000KT 10SM CLR 29/22 A2982 RMK AO2 T02900222
KLUD 160135Z AUTO 00000KT 10SM CLR 29/23 A2982 RMK AO2 T02850226
KLUD 160115Z AUTO 00000KT 10SM CLR 29/23 A2982 RMK AO2 T02870226
KLUD 160055Z AUTO 18003KT 10SM CLR 30/22 A2982 RMK AO2 T02970220
KLUD 160035Z AUTO 16004KT 10SM CLR 30/22 A2981 RMK AO2 T02970220
KLUD 160015Z AUTO 16007KT 10SM CLR 30/22 A2980 RMK AO2 T03010218
KLUD 152355Z AUTO 16011KT 10SM CLR 31/23 A2979 RMK AO2 T03070225 10324 20300
KLUD 152335Z AUTO 15011G15KT 7SM CLR 31/23 A2978 RMK AO2 T03100230
KLUD 152315Z AUTO 16012G15KT 10SM CLR 32/23 A2978 RMK AO2 T03180226
KLUD 152255Z AUTO 16011G15KT 10SM CLR 32/23 A2978 RMK AO2 T03200231
KLUD 152235Z AUTO 19007KT 10SM CLR 32/23 A2980 RMK AO2 T03200229
KLUD 152215Z AUTO 20007KT 10SM CLR 32/23 A2981 RMK AO2 T03160226
KLUD 152155Z AUTO 22009KT 10SM CLR 31/22 A2982 RMK AO2 T03070224
KLUD 152135Z AUTO 20007G14KT 10SM CLR 32/23 A2983 RMK AO2 T03180232
KLUD 152115Z AUTO 21008KT 10SM CLR 32/23 A2984 RMK AO2 T03150227
KLUD 152055Z AUTO 21007KT 10SM CLR 32/23 A2984 RMK AO2 T03190229
KLUD 152035Z AUTO 21008KT 10SM CLR 32/23 A2985 RMK AO2 T03150227
KLUD 152015Z AUTO 18010KT 10SM CLR 32/23 A2985 RMK AO2 T03170231
KLUD 151955Z AUTO 21007KT 190V260 10SM CLR 32/23 A2985 RMK AO2 T03200234
KLUD 151935Z AUTO 19007KT 10SM CLR 31/23 A2986 RMK AO2 T03140234
KLUD 151915Z AUTO 19009KT 10SM CLR 31/23 A2987 RMK AO2 T03090231
KLUD 151855Z AUTO 20006KT 10SM CLR 30/23 A2987 RMK AO2 T03030229
KLUD 151835Z AUTO 19007KT 10SM CLR 31/23 A2988 RMK AO2 T03060232
KLUD 151815Z AUTO 18011KT 10SM CLR 30/23 A2988 RMK AO2 T03020230
KLUD 151755Z AUTO 20009KT 10SM CLR 30/23 A2988 RMK AO2 T02990232 10299 20248
KLUD 151735Z AUTO 18008KT 10SM CLR 29/23 A2989 RMK AO2 T02910230
KLUD 151715Z AUTO 17009KT 10SM CLR 28/23 A2989 RMK AO2 T02800231
KLUD 151655Z AUTO 16009KT 10SM CLR 29/23 A2990 RMK AO2 T02850230
KLUD 151635Z AUTO 17010KT 10SM CLR 28/23 A2990 RMK AO2 T02830226
KLUD 151615Z AUTO 17008KT 10SM CLR 29/23 A2990 RMK AO2 T02930228
KLUD 151555Z AUTO 20011KT 10SM CLR 29/23 A2990 RMK AO2 T02920228
KLUD 151535Z AUTO 18009KT 7SM CLR 29/23 A2989 RMK AO2 T02900230
KLUD 151515Z AUTO 19009KT 10SM CLR 28/23 A2989 RMK AO2 T02810225
KLUD 151455Z AUTO 19007KT 10SM CLR 27/22 A2989 RMK AO2 T02730220
KLUD 151435Z AUTO 21007KT 7SM CLR 28/22 A2989 RMK AO2 T02760221
KLUD 151415Z AUTO 19005KT 10SM CLR 27/22 A2988 RMK AO2 T02710221
KLUD 151355Z AUTO 20005KT 10SM CLR 26/22 A2988 RMK AO2 T02610217
KLUD 151335Z AUTO 19005KT 7SM SCT075 25/22 A2988 RMK AO2 T02540217
KLUD 151315Z AUTO 20005KT 10SM SCT075 SCT090 26/22 A2987 RMK AO2 T02550215
KLUD 151255Z AUTO 20008KT 10SM CLR 26/21 A2987 RMK AO2 T02570213
KLUD 151235Z AUTO 17011KT 10SM CLR 25/21 A2985 RMK AO2 T02510213
KLUD 151215Z AUTO 16011KT 10SM CLR 25/21 A2985 RMK AO2 T02490211
KLUD 151155Z AUTO 16009KT 10SM CLR 25/21 A2985 RMK AO2 T02500211 10265 20249
KLUD 151135Z AUTO 17008KT 10SM CLR 25/21 A2984 RMK AO2 T02490212
KLUD 151115Z AUTO 16008KT 10SM CLR 25/21 A2984 RMK AO2 T02500212
KLUD 151055Z AUTO 16007KT 10SM CLR 25/21 A2983 RMK AO2 T02510211
KLUD 151035Z AUTO 17007KT 10SM CLR 25/21 A2982 RMK AO2 T02530211
KLUD 151015Z AUTO 17010KT 10SM CLR 26/21 A2982 RMK AO2 T02550210
KLUD 150955Z AUTO 17009KT 10SM CLR 26/21 A2982 RMK AO2 T02550210
KLUD 150935Z AUTO 17009KT 7SM CLR 26/21 A2982 RMK AO2 T02570210
KLUD 150915Z AUTO 17009KT 10SM CLR 26/21 A2982 RMK AO2 T02600211
KLUD 150855Z AUTO 17010G15KT 10SM CLR 26/21 A2982 RMK AO2 T02630211
KLUD 150835Z AUTO 17011KT 7SM CLR 27/21 A2981 RMK AO2 T02650212
KLUD 150815Z AUTO 16009KT 10SM CLR 26/21 A2981 RMK AO2 T02620213
KLUD 150755Z AUTO 15006KT 10SM CLR 26/22 A2981 RMK AO2 T02630217
KLUD 150735Z AUTO 15005KT 10SM CLR 26/22 A2981 RMK AO2 T02630220